Chisholm Hibbing Airport
KHIB : now visible

Airfield :











YOU CAN JOIN US ON...

 
LOGIN :

Register | Disclaimer

   EN    FR    IT 

 









Legend :    VFR   Marginal VFR   IFR   Intensive IFR   Very Intensive IFR
Visi :
Ceiling :
>= 8 km
>= 3000ft
5 to 8 km
1000 to 3000 ft
1500m to 5 km
500 to 1000 ft
800 to 1500m
200 to 500 ft
< 800m
< 200 ft
Symbols :   Thunderstorms  Fog  Heavy snow  Heavy precipitations  Wind > 20 kt






- Airport Elevation : 1354 ft
- IATA code : HIB


KHIB - Chisholm Hibbing

CURRENT METAR :
  • 211613Z AUTO 24009G15KT 8SM BKN014 BKN019 OVC033 00/M02 A3001 RMK AO2 T00001022

EXPIRED METARs :
  • 211602Z AUTO VRB05KT 8SM BKN016 OVC031 00/M02 A3001 RMK AO2 T00001017
  • 211547Z AUTO 25006G15KT 8SM FEW008 SCT015 OVC031 00/M02 A3000 RMK AO2 SNE40 P0000
  • 211538Z AUTO 26009G15KT 2 1/2SM -SN BR FEW007 BKN012 OVC028 M01/M02 A3000 RMK AO2 P0000 T10061017
  • 211525Z AUTO VRB06KT 1/2SM -SN FZFG FEW007 OVC011 M01/M02 A2999 RMK AO2 P0000 T10061017
  • 211517Z AUTO 27007KT 1 3/4SM -SN BR OVC010 M01/M02 A2998 RMK AO2 P0000 T10061017
  • 211501Z AUTO 26008KT 3SM -SN BR OVC010 M01/M02 A2997 RMK AO2 CIG 006V013 P0000 T10061017
  • 211453Z AUTO VRB03KT 2SM -SN BR OVC008 M01/M02 A2997 RMK AO2 UPB18E22SNB22 CIG 005V012 SLP169 P0000 60000 I3000 T10061017 51013
  • 211432Z AUTO 23004KT 1 1/2SM -SN BR BKN009 OVC015 M01/M02 A2997 RMK AO2 UPB18E22SNB22 CIG 005V011 P0000 T10061017
  • 211353Z AUTO 23005KT 4SM BR FEW004 OVC012 M01/M02 A2996 RMK AO2 SLP166 I1000 T10111017
  • 211339Z AUTO VRB03KT 2SM BR OVC008 M01/M02 A2996 RMK AO2 CIG 003V011 I1000 T10111017

TAF KHIB
Valid from the 21 at 16:00 until the 22 at 12:00 UTC


211552Z 2116/2212 25007G16KT P6SM OVC012
FM211700 26010G18KT P6SM OVC011
FM212300 27006KT P6SM BKN025
KZMP FIR / North America



MET'MAP, your aeronautical weather chart ! - Copyright ORBIFLY December 2007 - Disclaimer

ORBIFLY MET'MAP TEAM :

Programming & Development : Alexandra Zaïnal
Concept & original design : Baudouin d'Aumeries
Assistance for programming : Marc-Olivier Méhu
Technical & hardware support : Manuel Goepfert

Contact : metmap@orbifly.com




SOURCES & CREDITS :

   NOAA       Earth
Advisory